Kurun — FAA9678 — position and weather

sailwx.info

Track history (hours):
 
Tides and Currents Weather Stations Pressure Air Temp Water Temp Dewpoint Dewpoint Depression Visibility Wind Speed Wind Dir Waves Ship Positions

Kurun

Last reported at 2017-Nov-12 14:09 UTC. Time now 2017-Nov-17 21:25 UTC.
Position N 46°09' W 001°10'.

Type: Sailing vessel. MMSI: 227174770.

Date/timePositionNaut miles runAvg speedWind from/ knotsBaromVisibWave heightAir tempDewpointWater temp
2017-Nov-12 14:09N 46°09' W 001°10'0 0.0
2017-Nov-12 14:00N 46°09' W 001°10'0 0.0
2017-Nov-12 13:30N 46°09' W 001°10'0 0.0
2017-Nov-12 13:00N 46°09' W 001°10'0 0.0
2017-Nov-12 12:30N 46°09' W 001°10'1 1.0
2017-Nov-12 12:00N 46°09' W 001°11'3 6.9
2017-Nov-12 11:30N 46°07' W 001°15'2 3.6
2017-Nov-12 10:59N 46°09' W 001°13'0 0.9
2017-Nov-12 10:26N 46°09' W 001°14'1 2.0
2017-Nov-12 09:59N 46°09' W 001°13'1 2.5
2017-Nov-12 09:30N 46°08' W 001°11'1 1.2
2017-Nov-12 09:00N 46°09' W 001°11'0 0.9
2017-Nov-12 08:30N 46°09' W 001°10'0 0.0
2017-Nov-12 08:00N 46°09' W 001°10'0 0.0
2017-Nov-11 15:54N 46°09' W 001°10'1 1.9
2017-Nov-11 15:29N 46°08' W 001°11'2 1.1
2017-Nov-11 13:31N 46°07' W 001°14'0 8.6
2017-Nov-11 13:29N 46°08' W 001°14'2 3.3
2017-Nov-11 12:58N 46°08' W 001°11'1 3.1
2017-Nov-11 12:30N 46°09' W 001°10'0 0.7
2017-Nov-11 11:59N 46°09' W 001°10'1 3.0
2017-Nov-11 11:30N 46°08' W 001°12'2 4.8
2017-Nov-11 11:00N 46°08' W 001°15'2 3.9
2017-Nov-11 10:30N 46°09' W 001°13'1 1.9
2017-Nov-11 10:00N 46°08' W 001°11'1 1.1
2017-Nov-11 09:30N 46°09' W 001°11'1 1.2
2017-Nov-11 09:00N 46°09' W 001°10'0 0.0
2017-Nov-11 08:30N 46°09' W 001°10'0 0.0
2017-Nov-11 08:00N 46°09' W 001°10'0 0.0
2017-Nov-10 16:18N 46°09' W 001°10'0 0.9
2017-Nov-10 16:00N 46°09' W 001°10'1 2.9
2017-Nov-10 15:31N 46°08' W 001°11'2 4.0
2017-Nov-10 15:01N 46°09' W 001°14'3 4.9
2017-Nov-10 14:29N 46°07' W 001°16'2 1.7
2017-Nov-10 13:15N 46°06' W 001°13'2 7.7
2017-Nov-10 13:00N 46°07' W 001°12'1 1.0
2017-Nov-10 12:08N 46°08' W 001°12'1 7.5
2017-Nov-10 12:00N 46°08' W 001°13'1 2.3
2017-Nov-10 11:30N 46°08' W 001°12'0 0.6
2017-Nov-10 11:00N 46°08' W 001°12'  
Track history (hours):
 
Tides and Currents Weather Stations Pressure Air Temp Water Temp Dewpoint Dewpoint Depression Visibility Wind Speed Wind Dir Waves Ship Positions

Kurun

Last reported at 2017-Nov-12 14:09 UTC. Time now 2017-Nov-17 21:25 UTC.
Position N 46°09' W 001°10'.

Type: Sailing vessel. MMSI: 227174770.

Date/timePositionNaut miles runAvg speedWind from/ knotsBaromVisibWave heightAir tempDewpointWater temp
2017-Nov-12 14:09N 46°09' W 001°10'0 0.0
2017-Nov-12 14:00N 46°09' W 001°10'0 0.0
2017-Nov-12 13:30N 46°09' W 001°10'0 0.0
2017-Nov-12 13:00N 46°09' W 001°10'0 0.0
2017-Nov-12 12:30N 46°09' W 001°10'1 1.0
2017-Nov-12 12:00N 46°09' W 001°11'3 6.9
2017-Nov-12 11:30N 46°07' W 001°15'2 3.6
2017-Nov-12 10:59N 46°09' W 001°13'0 0.9
2017-Nov-12 10:26N 46°09' W 001°14'1 2.0
2017-Nov-12 09:59N 46°09' W 001°13'1 2.5
2017-Nov-12 09:30N 46°08' W 001°11'1 1.2
2017-Nov-12 09:00N 46°09' W 001°11'0 0.9
2017-Nov-12 08:30N 46°09' W 001°10'0 0.0
2017-Nov-12 08:00N 46°09' W 001°10'0 0.0
2017-Nov-11 15:54N 46°09' W 001°10'1 1.9
2017-Nov-11 15:29N 46°08' W 001°11'2 1.1
2017-Nov-11 13:31N 46°07' W 001°14'0 8.6
2017-Nov-11 13:29N 46°08' W 001°14'2 3.3
2017-Nov-11 12:58N 46°08' W 001°11'1 3.1
2017-Nov-11 12:30N 46°09' W 001°10'0 0.7
2017-Nov-11 11:59N 46°09' W 001°10'1 3.0
2017-Nov-11 11:30N 46°08' W 001°12'2 4.8
2017-Nov-11 11:00N 46°08' W 001°15'2 3.9
2017-Nov-11 10:30N 46°09' W 001°13'1 1.9
2017-Nov-11 10:00N 46°08' W 001°11'1 1.1
2017-Nov-11 09:30N 46°09' W 001°11'1 1.2
2017-Nov-11 09:00N 46°09' W 001°10'0 0.0
2017-Nov-11 08:30N 46°09' W 001°10'0 0.0
2017-Nov-11 08:00N 46°09' W 001°10'0 0.0
2017-Nov-10 16:18N 46°09' W 001°10'0 0.9
2017-Nov-10 16:00N 46°09' W 001°10'1 2.9
2017-Nov-10 15:31N 46°08' W 001°11'2 4.0
2017-Nov-10 15:01N 46°09' W 001°14'3 4.9
2017-Nov-10 14:29N 46°07' W 001°16'2 1.7
2017-Nov-10 13:15N 46°06' W 001°13'2 7.7
2017-Nov-10 13:00N 46°07' W 001°12'1 1.0
2017-Nov-10 12:08N 46°08' W 001°12'1 7.5
2017-Nov-10 12:00N 46°08' W 001°13'1 2.3
2017-Nov-10 11:30N 46°08' W 001°12'0 0.6
2017-Nov-10 11:00N 46°08' W 001°12'  

Dump ship's entire track history